Time;durP1;ratioP1;P1;durP2;ratioP2;P2;SDS_P1;SDS_P2;PMS_P1;PMS_P2;Temp;Humidity;BMP_temperature;BMP_pressure;BME280_temperature;BME280_humidity;BME280_pressure;Samples;Min_cycle;Max_cycle;Signal;HPM_P1;HPM_P2
2021/12/02 00:01:34;;;;;;;;;;;;;;;27.06;65.38;101038.72;5074045;27;68789;-34
2021/12/02 00:04:05;;;;;;;;;;;;;;;27.06;65.18;101047.63;5073402;27;66398;-35
2021/12/02 00:06:36;;;;;;;;;;;;;;;27.09;65.29;101060.72;5077640;27;70278;-34
2021/12/02 00:09:07;;;;;;;;;;;;;;;27.08;64.18;101053.66;5075794;27;65925;-34
2021/12/02 00:11:37;;;;;;;;;;;;;;;26.95;62.13;101065.09;5073178;27;70167;-37
2021/12/02 00:14:11;;;;;;;;;;;;;;;26.81;61.86;101076.75;5077547;27;66136;-34
2021/12/02 00:22:22;;;;;;;;;;;;;;;26.66;63.63;101082.16;5073239;27;68768;-35
2021/12/02 00:24:55;;;;;;;;;;;;;;;26.79;64.60;101088.72;5075528;27;66580;-36
2021/12/02 00:27:29;;;;;;;;;;;;;;;26.84;65.09;101091.69;5075328;27;69186;-36
2021/12/02 00:30:00;;;;;;;;;;;;;;;26.94;65.84;101100.28;5073678;27;65147;-36
2021/12/02 00:32:30;;;;;;;;;;;;;;;26.97;65.14;101097.25;5074585;27;70074;-35
2021/12/02 00:35:01;;;;;;;;;;;;;;;27.02;64.51;101108.25;5074557;27;66137;-35
2021/12/02 00:37:31;;;;;;;;;;;;;;;27.05;64.26;101107.91;5076477;27;70223;-35
2021/12/02 00:40:02;;;;;;;;;;;;;;;27.09;64.05;101109.19;5075397;27;66544;-35
2021/12/02 00:42:35;;;;;;;;;;;;;;;27.13;64.15;101115.84;5074908;27;70273;-35
2021/12/02 00:45:05;;;;;;;;;;;;;;;27.17;63.84;101116.34;5073272;27;65413;-34
2021/12/02 00:47:37;;;;;;;;;;;;;;;27.20;63.88;101109.75;5076880;27;70004;-34
2021/12/02 00:50:07;;;;;;;;;;;;;;;27.22;63.80;101113.94;5073459;27;66339;-34
2021/12/02 00:52:37;;;;;;;;;;;;;;;27.23;63.73;101117.44;5073624;27;69083;-34
2021/12/02 00:55:08;;;;;;;;;;;;;;;27.26;63.60;101128.66;5062674;27;66591;-35
2021/12/02 00:57:42;;;;;;;;;;;;;;;27.29;63.76;101125.59;5075456;27;69351;-37
2021/12/02 01:00:13;;;;;;;;;;;;;;;27.30;63.69;101131.81;5074517;27;66708;-35
2021/12/02 01:02:43;;;;;;;;;;;;;;;27.31;63.53;101138.88;5075344;27;69646;-36
2021/12/02 01:05:14;;;;;;;;;;;;;;;27.33;63.38;101134.13;5075194;27;66250;-34
2021/12/02 01:07:45;;;;;;;;;;;;;;;27.36;63.47;101136.44;5076393;27;69432;-34
2021/12/02 01:10:16;;;;;;;;;;;;;;;27.37;63.25;101140.81;5073944;27;66442;-35
2021/12/02 01:12:50;;;;;;;;;;;;;;;27.38;63.22;101155.94;5075669;27;69873;-35
2021/12/02 01:15:20;;;;;;;;;;;;;;;27.39;63.02;101155.75;5073573;27;65976;-35
2021/12/02 01:17:51;;;;;;;;;;;;;;;27.40;63.17;101170.06;5075061;27;70618;-36
2021/12/02 01:20:21;;;;;;;;;;;;;;;27.42;63.31;101164.50;5074370;27;66234;-34
2021/12/02 01:22:52;;;;;;;;;;;;;;;27.43;63.06;101166.16;5075385;27;70223;-34
2021/12/02 01:25:23;;;;;;;;;;;;;;;27.44;63.05;101176.72;5072159;27;66741;-35
2021/12/02 01:27:56;;;;;;;;;;;;;;;27.46;62.84;101184.63;5076704;27;69264;-34
2021/12/02 01:30:28;;;;;;;;;;;;;;;27.33;62.75;101172.69;5076777;27;66507;-35
2021/12/02 01:33:03;;;;;;;;;;;;;;;27.47;62.89;101195.22;5076588;27;70093;-34
2021/12/02 01:35:35;;;;;;;;;;;;;;;27.51;62.80;101203.75;5075080;27;66371;-35
2021/12/02 01:38:05;;;;;;;;;;;;;;;27.51;62.93;101199.19;5075040;27;69174;-35
2021/12/02 01:40:37;;;;;;;;;;;;;;;27.50;62.72;101194.84;5074376;27;66905;-35
2021/12/02 01:43:09;;;;;;;;;;;;;;;27.54;63.13;101196.13;5077095;27;70208;-36
2021/12/02 01:45:40;;;;;;;;;;;;;;;27.55;63.02;101205.88;5072842;27;66573;-35
2021/12/02 01:48:13;;;;;;;;;;;;;;;27.58;62.82;101220.81;5075691;27;69966;-34
2021/12/02 01:50:58;;;;;;;;;;;;;;;27.59;63.00;101222.50;5067983;27;65595;-35
2021/12/02 01:53:33;;;;;;;;;;;;;;;27.61;63.00;101221.28;5075952;27;69456;-35
2021/12/02 01:56:13;;;;;;;;;;;;;;;27.61;62.85;101215.91;5075105;27;66582;-35
2021/12/02 01:58:50;;;;;;;;;;;;;;;27.65;62.83;101212.81;5065339;27;70237;-35
2021/12/02 02:01:22;;;;;;;;;;;;;;;27.66;62.75;101214.47;5073447;27;66284;-35
2021/12/02 02:03:54;;;;;;;;;;;;;;;27.68;62.87;101209.75;5073196;27;70579;-34
2021/12/02 02:06:30;;;;;;;;;;;;;;;27.69;62.91;101200.63;5073629;27;66701;-35
2021/12/02 02:09:01;;;;;;;;;;;;;;;27.71;62.67;101195.88;5065766;27;69142;-35
2021/12/02 02:11:31;;;;;;;;;;;;;;;27.72;62.71;101192.16;5074825;27;66738;-35
2021/12/02 02:14:04;;;;;;;;;;;;;;;27.75;62.62;101198.03;5074318;27;70443;-34
2021/12/02 02:16:36;;;;;;;;;;;;;;;27.76;62.68;101196.97;5073956;27;65350;-35
2021/12/02 02:19:10;;;;;;;;;;;;;;;27.78;62.72;101207.59;5073339;27;70611;-34
2021/12/02 02:21:41;;;;;;;;;;;;;;;27.80;62.89;101224.41;5072425;27;65530;-36
2021/12/02 02:24:17;;;;;;;;;;;;;;;27.82;62.64;101216.97;5072024;27;69892;-38
2021/12/02 02:26:47;;;;;;;;;;;;;;;27.84;62.81;101214.94;5075421;27;66418;-35
2021/12/02 02:29:18;;;;;;;;;;;;;;;27.86;62.57;101212.88;5071931;27;69371;-35
2021/12/02 02:31:49;;;;;;;;;;;;;;;27.87;62.70;101209.16;5075407;27;66358;-35
2021/12/02 02:34:23;;;;;;;;;;;;;;;27.90;62.67;101218.72;5053674;28;69917;-35
2021/12/02 02:36:56;;;;;;;;;;;;;;;27.93;62.44;101221.03;5074838;27;65935;-34
2021/12/02 02:39:28;;;;;;;;;;;;;;;27.95;62.61;101216.28;5077816;27;69654;-34
2021/12/02 02:42:00;;;;;;;;;;;;;;;27.96;62.48;101213.38;5078635;27;67192;-35
2021/12/02 02:44:32;;;;;;;;;;;;;;;27.98;62.94;101211.34;5077151;27;69288;-35
2021/12/02 02:47:02;;;;;;;;;;;;;;;28.00;62.51;101209.28;5079197;27;67279;-35
2021/12/02 02:49:33;;;;;;;;;;;;;;;28.03;62.42;101214.28;5076953;27;69561;-36
2021/12/02 02:52:04;;;;;;;;;;;;;;;28.03;62.55;101214.28;5076493;27;66330;-37
2021/12/02 02:54:34;;;;;;;;;;;;;;;28.06;62.22;101208.50;5079734;27;69728;-35
2021/12/02 02:57:08;;;;;;;;;;;;;;;28.11;62.41;101215.16;5077977;27;66640;-35
2021/12/02 02:59:55;;;;;;;;;;;;;;;28.13;62.35;101213.13;5093208;27;70072;-36
2021/12/02 03:02:48;;;;;;;;;;;;;;;28.14;62.62;101207.53;5077965;27;66848;-35
2021/12/02 03:05:25;;;;;;;;;;;;;;;28.17;62.58;101209.03;5076797;27;69934;-35
2021/12/02 03:08:10;;;;;;;;;;;;;;;28.20;62.24;101211.34;5077954;27;66579;-36
2021/12/02 03:10:47;;;;;;;;;;;;;;;28.23;62.27;101209.06;5079304;27;70230;-35
2021/12/02 03:13:23;;;;;;;;;;;;;;;28.25;62.43;101207.03;5076143;27;66515;-35
2021/12/02 03:18:43;;;;;;;;;;;;;;;28.32;61.97;101208.94;5074853;27;66300;-36
2021/12/02 03:21:20;;;;;;;;;;;;;;;28.33;62.14;101208.72;5076545;27;69843;-36
2021/12/02 03:23:56;;;;;;;;;;;;;;;28.36;61.97;101207.50;5078789;27;65725;-35
2021/12/02 03:26:27;;;;;;;;;;;;;;;28.39;62.26;101202.56;5077502;27;70567;-36
2021/12/02 03:28:58;;;;;;;;;;;;;;;28.41;62.03;101205.88;5077659;27;65124;-34
2021/12/02 03:31:29;;;;;;;;;;;;;;;28.43;62.10;101209.25;5073781;27;68751;-36
2021/12/02 03:34:00;;;;;;;;;;;;;;;28.46;62.05;101203.47;5077239;27;66695;-35
2021/12/02 03:36:31;;;;;;;;;;;;;;;28.46;61.95;101186.44;5077767;27;69803;-35
2021/12/02 03:39:03;;;;;;;;;;;;;;;28.52;62.11;101193.75;5076793;27;66368;-36
2021/12/02 03:41:34;;;;;;;;;;;;;;;28.57;61.72;101195.88;5075953;27;70060;-35
2021/12/02 03:44:04;;;;;;;;;;;;;;;28.58;62.00;101190.25;5077752;27;66588;-36
2021/12/02 03:46:35;;;;;;;;;;;;;;;28.62;61.76;101193.41;5075406;28;69757;-35
2021/12/02 03:49:06;;;;;;;;;;;;;;;28.64;61.89;101194.03;5077782;27;64952;-35
2021/12/02 03:51:37;;;;;;;;;;;;;;;28.68;61.67;101198.03;5084802;27;69386;-34
2021/12/02 03:54:08;;;;;;;;;;;;;;;28.70;61.53;101190.56;5082892;27;66840;-35
2021/12/02 03:56:39;;;;;;;;;;;;;;;28.73;61.70;101192.88;5076741;27;69346;-34
2021/12/02 03:59:09;;;;;;;;;;;;;;;28.76;61.67;101187.06;5078066;27;66071;-35
2021/12/02 04:01:40;;;;;;;;;;;;;;;28.78;61.48;101181.44;5062002;27;70510;-36
2021/12/02 04:04:11;;;;;;;;;;;;;;;28.81;61.35;101178.38;5078672;27;66216;-36
2021/12/02 04:07:07;;;;;;;;;;;;;;;28.83;61.34;101171.72;5052324;28;70727;-35
2021/12/02 04:09:43;;;;;;;;;;;;;;;28.87;61.44;101164.91;5077457;27;66642;-35
2021/12/02 04:12:33;;;;;;;;;;;;;;;28.81;61.67;101157.59;5074851;27;68962;-36
2021/12/02 04:15:11;;;;;;;;;;;;;;;28.93;61.64;101160.56;5076280;27;66718;-35
2021/12/02 04:17:42;;;;;;;;;;;;;;;28.96;61.04;101158.28;5076292;27;70332;-36
2021/12/02 04:20:14;;;;;;;;;;;;;;;28.99;61.07;101137.31;5077418;27;66558;-35
2021/12/02 04:22:45;;;;;;;;;;;;;;;29.02;61.28;101134.22;5075864;27;69429;-36
2021/12/02 04:25:16;;;;;;;;;;;;;;;29.06;60.80;101132.78;5077132;27;66061;-38
2021/12/02 04:27:47;;;;;;;;;;;;;;;29.08;60.84;101130.72;5077239;27;69819;-36
2021/12/02 04:30:20;;;;;;;;;;;;;;;29.11;60.69;101133.03;5074834;27;66344;-36
2021/12/02 04:32:50;;;;;;;;;;;;;;;29.14;60.81;101128.06;5058895;28;68938;-36
2021/12/02 04:35:21;;;;;;;;;;;;;;;29.17;60.88;101119.56;5074608;27;66989;-35
2021/12/02 04:37:52;;;;;;;;;;;;;;;29.21;60.84;101125.38;5065644;27;69864;-36
2021/12/02 04:40:24;;;;;;;;;;;;;;;29.23;60.87;101112.50;5075033;27;66305;-36
2021/12/02 04:42:55;;;;;;;;;;;;;;;29.26;60.80;101106.69;5063749;27;70393;-36
2021/12/02 04:45:25;;;;;;;;;;;;;;;29.29;60.69;101109.00;5074709;27;66653;-35
2021/12/02 04:47:55;;;;;;;;;;;;;;;29.31;60.69;101104.22;5076971;27;70126;-35
2021/12/02 04:50:26;;;;;;;;;;;;;;;29.34;60.87;101106.50;5076574;27;66339;-36
2021/12/02 04:52:57;;;;;;;;;;;;;;;29.37;60.34;101100.69;5074869;27;69769;-36
2021/12/02 04:55:27;;;;;;;;;;;;;;;29.40;60.76;101097.59;5075323;27;66546;-35
2021/12/02 04:57:57;;;;;;;;;;;;;;;29.43;60.77;101090.09;5076976;27;70098;-34
2021/12/02 05:00:28;;;;;;;;;;;;;;;29.45;60.29;101093.41;5073808;27;66396;-36
2021/12/02 05:02:58;;;;;;;;;;;;;;;29.46;60.69;101087.81;5077160;27;69442;-36
2021/12/02 05:05:29;;;;;;;;;;;;;;;29.48;60.61;101076.81;5075559;27;66513;-36
2021/12/02 05:08:02;;;;;;;;;;;;;;;29.51;60.56;101071.00;5075332;27;70834;-35
2021/12/02 05:10:33;;;;;;;;;;;;;;;29.53;60.61;101067.06;5076305;27;66370;-35
2021/12/02 05:13:03;;;;;;;;;;;;;;;29.56;60.51;101063.06;5076895;27;70195;-36
2021/12/02 05:15:34;;;;;;;;;;;;;;;29.56;60.15;101049.56;5075492;27;66073;-36
2021/12/02 05:18:05;;;;;;;;;;;;;;;29.59;59.98;101052.69;5075627;27;70170;-35
2021/12/02 05:20:36;;;;;;;;;;;;;;;29.60;59.88;101043.53;5074067;27;66562;-36
2021/12/02 05:23:08;;;;;;;;;;;;;;;29.63;60.30;101036.91;5075543;27;70112;-36
2021/12/02 05:25:48;;;;;;;;;;;;;;;29.64;60.19;101041.28;5069914;28;65983;-36
2021/12/02 05:28:19;;;;;;;;;;;;;;;29.66;60.21;101047.31;5075099;27;69591;-35
2021/12/02 05:30:49;;;;;;;;;;;;;;;29.68;60.01;101034.44;5074472;27;65670;-34
2021/12/02 05:33:20;;;;;;;;;;;;;;;29.70;59.86;101032.34;5076218;27;69282;-36
2021/12/02 05:35:51;;;;;;;;;;;;;;;29.67;59.75;101007.59;5073023;27;65483;-36
2021/12/02 05:38:21;;;;;;;;;;;;;;;29.73;59.65;101021.13;5076017;27;70037;-36
2021/12/02 05:40:52;;;;;;;;;;;;;;;29.75;59.71;101013.59;5075252;27;65564;-35
2021/12/02 05:43:22;;;;;;;;;;;;;;;29.78;59.79;101007.81;5074582;27;70313;-36
2021/12/02 05:45:53;;;;;;;;;;;;;;;29.79;59.98;100998.66;5074215;27;66740;-37
2021/12/02 05:48:30;;;;;;;;;;;;;;;29.82;60.04;100998.22;5057855;28;70333;-36
2021/12/02 05:51:09;;;;;;;;;;;;;;;29.87;59.42;100999.47;5071733;27;65656;-36
2021/12/02 05:53:39;;;;;;;;;;;;;;;29.89;59.49;100991.97;5075604;27;69999;-36
2021/12/02 05:56:10;;;;;;;;;;;;;;;29.92;59.47;100999.66;5071843;27;65844;-36
2021/12/02 05:58:41;;;;;;;;;;;;;;;29.93;59.93;100988.63;5075920;27;70403;-36
2021/12/02 06:01:12;;;;;;;;;;;;;;;29.96;59.31;100987.38;5074582;27;66252;-36
2021/12/02 06:03:43;;;;;;;;;;;;;;;29.98;59.23;100969.06;5057883;28;70274;-35
2021/12/02 06:06:15;;;;;;;;;;;;;;;29.99;59.68;100965.31;5072321;27;65616;-35
2021/12/02 06:08:51;;;;;;;;;;;;;;;30.03;59.24;100970.09;5074145;28;69104;-36
2021/12/02 06:11:23;;;;;;;;;;;;;;;30.06;59.35;100968.81;5074105;27;66121;-36
2021/12/02 06:13:53;;;;;;;;;;;;;;;30.08;59.04;100958.63;5074640;28;69886;-35
2021/12/02 06:16:24;;;;;;;;;;;;;;;30.11;59.53;100952.78;5073439;27;66608;-36
2021/12/02 06:18:54;;;;;;;;;;;;;;;30.10;59.33;100956.53;5075058;27;70169;-36
2021/12/02 06:21:25;;;;;;;;;;;;;;;30.14;59.04;100949.66;5074733;27;66489;-36
2021/12/02 06:23:56;;;;;;;;;;;;;;;30.16;59.32;100947.56;5072804;27;69543;-36
2021/12/02 06:26:26;;;;;;;;;;;;;;;30.19;59.10;100947.13;5074708;27;66471;-36
2021/12/02 06:28:57;;;;;;;;;;;;;;;30.22;58.80;100948.63;5076388;27;69882;-37
2021/12/02 06:31:28;;;;;;;;;;;;;;;30.24;59.16;100952.78;5073847;27;65436;-36
2021/12/02 06:34:00;;;;;;;;;;;;;;;30.25;59.37;100943.59;5041612;27;68590;-35
2021/12/02 06:36:30;;;;;;;;;;;;;;;30.15;59.31;100924.28;5076144;27;66226;-36
2021/12/02 06:39:01;;;;;;;;;;;;;;;30.30;59.19;100923.19;5076142;27;70048;-36
2021/12/02 06:41:33;;;;;;;;;;;;;;;30.32;59.09;100923.81;5075412;27;65357;-38
2021/12/02 06:44:04;;;;;;;;;;;;;;;30.34;59.20;100919.84;5073965;27;70252;-36
2021/12/02 06:46:34;;;;;;;;;;;;;;;30.37;58.78;100922.13;5076646;27;65666;-35
2021/12/02 06:49:05;;;;;;;;;;;;;;;30.40;58.95;100923.56;5075341;27;69444;-35
2021/12/02 06:51:35;;;;;;;;;;;;;;;30.41;59.19;100919.81;5074579;27;65702;-35
2021/12/02 06:54:18;;;;;;;;;;;;;;;30.43;59.23;100923.13;5075035;27;69726;-36
2021/12/02 06:56:57;;;;;;;;;;;;;;;30.46;58.86;100926.22;5041739;28;65494;-35
2021/12/02 06:59:27;;;;;;;;;;;;;;;30.48;59.03;100920.63;5074410;27;69505;-36
2021/12/02 07:02:01;;;;;;;;;;;;;;;30.50;58.94;100918.50;5074684;27;65192;-36
2021/12/02 07:04:35;;;;;;;;;;;;;;;30.53;59.06;100911.81;5072441;27;69845;-35
2021/12/02 07:07:06;;;;;;;;;;;;;;;30.56;58.80;100905.97;5075142;27;66372;-36
2021/12/02 07:09:39;;;;;;;;;;;;;;;30.59;58.67;100897.41;5075253;27;69985;-37
2021/12/02 07:12:11;;;;;;;;;;;;;;;30.59;58.55;100900.97;5073873;27;66830;-36
2021/12/02 07:14:47;;;;;;;;;;;;;;;30.61;58.78;100898.84;5074263;27;70460;-35
2021/12/02 07:17:21;;;;;;;;;;;;;;;30.66;58.96;100896.34;5073972;27;66112;-35
2021/12/02 07:19:52;;;;;;;;;;;;;;;30.67;58.90;100900.72;5078625;27;69200;-35
2021/12/02 07:22:23;;;;;;;;;;;;;;;30.69;58.94;100895.88;5078227;27;66599;-36
2021/12/02 07:25:01;;;;;;;;;;;;;;;30.71;58.70;100899.22;5076803;27;70014;-35
2021/12/02 07:27:32;;;;;;;;;;;;;;;30.74;58.90;100897.94;5076263;27;66091;-36
2021/12/02 07:30:06;;;;;;;;;;;;;;;30.76;58.61;100889.59;5078268;27;70250;-35
2021/12/02 07:32:39;;;;;;;;;;;;;;;30.79;58.33;100894.59;5078263;27;66608;-36
2021/12/02 07:35:14;;;;;;;;;;;;;;;30.79;58.59;100892.72;5078790;27;69398;-35
2021/12/02 07:37:50;;;;;;;;;;;;;;;30.81;58.35;100892.50;5077807;27;67065;-35
2021/12/02 07:40:21;;;;;;;;;;;;;;;30.82;58.67;100888.78;5077497;27;70628;-35
2021/12/02 07:42:53;;;;;;;;;;;;;;;30.84;58.68;100894.78;5078206;27;66560;-36
2021/12/02 07:45:26;;;;;;;;;;;;;;;30.86;58.46;100900.81;5078059;27;69383;-36
2021/12/02 07:47:57;;;;;;;;;;;;;;;30.87;58.35;100897.03;5078481;27;66204;-36
2021/12/02 07:50:28;;;;;;;;;;;;;;;30.88;58.00;100898.72;5077822;27;69717;-37
2021/12/02 07:53:00;;;;;;;;;;;;;;;30.90;58.19;100896.63;5077612;27;66950;-37
2021/12/02 07:55:41;;;;;;;;;;;;;;;30.90;58.04;100893.91;5077526;27;69150;-36
2021/12/02 07:58:12;;;;;;;;;;;;;;;30.94;57.96;100897.84;5076318;27;66869;-36
2021/12/02 08:00:43;;;;;;;;;;;;;;;30.96;57.98;100900.34;5076532;27;69183;-35
2021/12/02 08:03:14;;;;;;;;;;;;;;;30.97;58.30;100891.97;5077760;27;66724;-37
2021/12/02 08:05:46;;;;;;;;;;;;;;;30.99;57.49;100889.88;5077940;27;70559;-35
2021/12/02 08:08:19;;;;;;;;;;;;;;;31.01;57.91;100898.63;5076983;27;67007;-36
2021/12/02 08:10:53;;;;;;;;;;;;;;;31.02;57.57;100894.84;5058139;28;70157;-36
2021/12/02 08:13:30;;;;;;;;;;;;;;;31.04;58.01;100892.75;5077199;27;66433;-35
2021/12/02 08:16:02;;;;;;;;;;;;;;;31.06;57.82;100890.63;5060326;28;70520;-35
2021/12/02 08:18:35;;;;;;;;;;;;;;;31.07;57.90;100889.59;5076900;27;66041;-36
2021/12/02 08:21:06;;;;;;;;;;;;;;;31.09;57.61;100884.81;5078658;27;70258;-37
2021/12/02 08:23:37;;;;;;;;;;;;;;;31.11;57.78;100882.69;5076516;27;66454;-36
2021/12/02 08:26:17;;;;;;;;;;;;;;;31.12;57.75;100884.34;5077971;27;70444;-36
2021/12/02 08:28:56;;;;;;;;;;;;;;;31.15;57.78;100893.91;5075779;27;66179;-36
2021/12/02 08:31:29;;;;;;;;;;;;;;;31.11;57.45;100885.38;5076678;27;69738;-36
2021/12/02 08:34:00;;;;;;;;;;;;;;;31.19;57.26;100899.72;5075783;27;66271;-36
2021/12/02 08:36:41;;;;;;;;;;;;;;;31.08;57.54;100872.28;5076341;27;69687;-36
2021/12/02 08:39:17;;;;;;;;;;;;;;;31.21;57.42;100892.19;5074507;27;65709;-36
2021/12/02 08:41:51;;;;;;;;;;;;;;;31.23;56.99;100890.06;5076038;27;70832;-36
2021/12/02 08:44:22;;;;;;;;;;;;;;;31.25;57.18;100887.97;5075817;27;66054;-36
2021/12/02 08:46:57;;;;;;;;;;;;;;;31.26;57.33;100900.47;5077881;27;69317;-35
2021/12/02 08:49:37;;;;;;;;;;;;;;;31.28;57.71;100901.09;5076861;27;65927;-35
2021/12/02 08:52:10;;;;;;;;;;;;;;;31.29;57.06;100900.88;5077098;27;70200;-36
2021/12/02 08:54:44;;;;;;;;;;;;;;;31.29;57.49;100895.47;5075610;27;65549;-36
2021/12/02 08:57:24;;;;;;;;;;;;;;;31.30;57.72;100904.41;5075807;27;70524;-35
2021/12/02 08:59:57;;;;;;;;;;;;;;;31.33;57.01;100902.06;5077005;27;67510;-36
2021/12/02 09:02:52;;;;;;;;;;;;;;;31.32;57.63;100895.00;5077011;27;70446;-36
2021/12/02 09:05:23;;;;;;;;;;;;;;;31.33;57.55;100901.25;5074113;27;65976;-35
2021/12/02 09:07:54;;;;;;;;;;;;;;;31.33;57.46;100902.06;5075723;27;69110;-36
2021/12/02 09:10:27;;;;;;;;;;;;;;;31.34;57.70;100909.16;5075961;27;65392;-35
2021/12/02 09:13:08;;;;;;;;;;;;;;;31.35;57.57;100904.56;5077223;27;69613;-35
2021/12/02 09:15:38;;;;;;;;;;;;;;;31.35;57.75;100910.81;5087078;27;65336;-36
2021/12/02 09:18:09;;;;;;;;;;;;;;;31.34;57.42;100911.03;5075561;27;70364;-36
2021/12/02 09:20:43;;;;;;;;;;;;;;;31.33;57.54;100912.09;5075712;27;66705;-36
2021/12/02 09:23:14;;;;;;;;;;;;;;;31.13;57.55;100880.59;5077312;27;70284;-36
2021/12/02 09:25:44;;;;;;;;;;;;;;;31.35;57.16;100905.41;5074327;27;66840;-36
2021/12/02 09:28:18;;;;;;;;;;;;;;;31.37;57.17;100918.75;5077321;27;70711;-36
2021/12/02 09:30:57;;;;;;;;;;;;;;;31.37;57.29;100926.88;5076005;27;66308;-36
2021/12/02 09:33:34;;;;;;;;;;;;;;;31.36;57.24;100923.34;5076233;27;70670;-36
2021/12/02 09:36:08;;;;;;;;;;;;;;;31.37;57.33;100925.03;5063794;27;65893;-36
2021/12/02 09:38:38;;;;;;;;;;;;;;;31.37;57.00;100926.88;5072375;27;69831;-36
2021/12/02 09:41:09;;;;;;;;;;;;;;;31.38;57.19;100925.84;5076265;27;65973;-36
2021/12/02 09:43:39;;;;;;;;;;;;;;;31.38;57.05;100925.84;5074801;27;70109;-36
2021/12/02 09:46:16;;;;;;;;;;;;;;;31.37;57.04;100927.72;5075382;27;66998;-36
2021/12/02 09:49:05;;;;;;;;;;;;;;;31.36;57.42;100933.34;5074733;27;69682;-36
2021/12/02 09:51:47;;;;;;;;;;;;;;;31.35;57.24;100926.25;5076812;27;66073;-35
2021/12/02 09:54:30;;;;;;;;;;;;;;;31.36;57.48;100930.66;5076259;27;70357;-35
2021/12/02 09:57:12;;;;;;;;;;;;;;;31.35;57.29;100937.09;5058914;28;65770;-36
2021/12/02 10:02:29;;;;;;;;;;;;;;;31.33;57.21;100940.03;5076299;27;66759;-36
2021/12/02 10:05:13;;;;;;;;;;;;;;;31.32;57.25;100948.38;5075847;27;69877;-35
2021/12/02 10:07:55;;;;;;;;;;;;;;;31.32;57.45;100954.63;5076342;27;66145;-35
2021/12/02 10:10:51;;;;;;;;;;;;;;;31.31;57.14;100957.56;5063030;27;69281;-36
2021/12/02 10:13:34;;;;;;;;;;;;;;;31.30;57.02;100958.63;5076368;27;66464;-36
2021/12/02 10:16:27;;;;;;;;;;;;;;;31.30;57.43;100972.16;5074681;27;70510;-36
2021/12/02 10:19:33;;;;;;;;;;;;;;;31.29;57.49;100973.22;5075226;27;65330;-36
2021/12/02 10:22:01;;;;;;;;;;;;;;;31.28;57.50;100979.69;5073270;27;70453;-36
2021/12/02 10:24:32;;;;;;;;;;;;;;;31.27;57.32;100978.03;5074465;27;66380;-36
2021/12/02 10:27:05;;;;;;;;;;;;;;;31.27;57.65;100988.88;5072959;27;70235;-36
2021/12/02 10:29:50;;;;;;;;;;;;;;;31.24;57.87;100989.31;5075206;27;65887;-36
2021/12/02 10:32:43;;;;;;;;;;;;;;;31.23;57.82;100985.78;5075276;27;70622;-35
2021/12/02 10:35:49;;;;;;;;;;;;;;;31.19;57.49;100991.84;5075809;27;65735;-35
2021/12/02 10:38:38;;;;;;;;;;;;;;;31.10;57.66;100984.00;5073916;27;69352;-35
2021/12/02 10:41:13;;;;;;;;;;;;;;;31.20;57.46;100999.75;5076052;27;66375;-36
2021/12/02 10:44:06;;;;;;;;;;;;;;;31.18;57.70;101007.28;5072197;28;70400;-34
2021/12/02 10:46:52;;;;;;;;;;;;;;;31.16;57.93;101010.19;5067110;27;66847;-35
2021/12/02 10:49:35;;;;;;;;;;;;;;;31.12;57.92;101019.84;5072124;27;69889;-35
2021/12/02 10:52:17;;;;;;;;;;;;;;;;;;;;;
2021/12/02 10:54:56;;;;;;;;;;;;;;;31.07;57.00;101016.94;5064801;27;68961;-35
2021/12/02 10:57:40;;;;;;;;;;;;;;;;;;;;;
2021/12/02 11:03:32;;;;;;;;;;;;;;;31.06;56.15;101026.09;5075230;27;66028;-34
2021/12/02 11:06:04;;;;;;;;;;;;;;;31.01;56.31;101016.97;5078853;27;69803;-37
2021/12/02 11:08:34;;;;;;;;;;;;;;;31.05;56.31;101024.44;5075573;27;66992;-36
2021/12/02 11:11:21;;;;;;;;;;;;;;;31.04;56.59;101030.94;5079006;27;70463;-35
2021/12/02 11:13:55;;;;;;;;;;;;;;;31.05;56.05;101037.16;5074747;27;66843;-35
2021/12/02 11:16:33;;;;;;;;;;;;;;;31.03;55.26;101042.78;5076114;27;70090;-35
2021/12/02 11:19:20;;;;;;;;;;;;;;;31.01;55.70;101039.50;5058889;28;65523;-36
2021/12/02 11:22:03;;;;;;;;;;;;;;;31.00;56.25;101037.81;5074895;27;69248;-36
2021/12/02 11:24:45;;;;;;;;;;;;;;;31.01;58.60;101042.19;5076626;27;65202;-36
2021/12/02 11:27:18;;;;;;;;;;;;;;;30.97;56.63;101059.91;5074645;27;69422;-36
2021/12/02 11:29:50;;;;;;;;;;;;;;;30.96;57.27;101052.84;5072382;27;65079;-35
2021/12/02 11:32:35;;;;;;;;;;;;;;;30.96;56.11;101058.28;5075679;27;69576;-35
2021/12/02 11:35:35;;;;;;;;;;;;;;;;;;;;;
2021/12/02 11:38:17;;;;;;;;;;;;;;;30.93;56.35;101072.25;5074947;27;70557;-36
2021/12/02 11:40:58;;;;;;;;;;;;;;;30.91;55.45;101071.63;5076056;27;66700;-35
2021/12/02 11:43:59;;;;;;;;;;;;;;;30.88;55.69;101077.47;5068052;27;69573;-35
2021/12/02 11:46:33;;;;;;;;;;;;;;;30.86;56.30;101074.16;5075075;27;66194;-36
2021/12/02 11:49:27;;;;;;;;;;;;;;;30.82;56.48;101087.31;5047703;27;69147;-37
2021/12/02 11:51:58;;;;;;;;;;;;;;;30.82;56.57;101090.00;5041002;28;66147;-36
2021/12/02 11:54:29;;;;;;;;;;;;;;;30.81;55.95;101104.56;5057181;28;69277;-36
2021/12/02 11:57:00;;;;;;;;;;;;;;;30.81;56.04;101098.34;5039045;28;66886;-36
2021/12/02 11:59:33;;;;;;;;;;;;;;;30.81;56.12;101103.75;5058177;27;69421;-36
2021/12/02 12:02:13;;;;;;;;;;;;;;;30.81;55.88;101098.34;5068078;27;66647;-36
2021/12/02 12:04:57;;;;;;;;;;;;;;;30.76;55.61;101114.34;5057537;27;70158;-36
2021/12/02 12:07:58;;;;;;;;;;;;;;;30.77;55.74;101121.47;5075020;27;66531;-37
2021/12/02 12:10:42;;;;;;;;;;;;;;;30.75;56.35;101115.41;5044160;28;70074;-36
2021/12/02 12:13:18;;;;;;;;;;;;;;;30.78;55.90;101114.97;5058019;27;66062;-36
2021/12/02 12:16:02;;;;;;;;;;;;;;;30.73;55.90;101116.47;5065514;27;71199;-39
2021/12/02 12:18:39;;;;;;;;;;;;;;;30.73;56.73;101119.19;5072819;27;66485;-39
2021/12/02 12:21:12;;;;;;;;;;;;;;;30.76;56.62;101117.06;5051023;28;69910;-39
2021/12/02 12:24:10;;;;;;;;;;;;;;;30.77;56.95;101118.75;5076851;27;66175;-37
2021/12/02 12:27:18;;;;;;;;;;;;;;;30.76;56.55;101125.19;5075091;27;70258;-37
2021/12/02 12:30:12;;;;;;;;;;;;;;;30.68;55.73;101127.09;5073297;27;66902;-39
2021/12/02 12:33:01;;;;;;;;;;;;;;;30.67;55.82;101124.59;5055932;28;69132;-37
2021/12/02 12:38:37;;;;;;;;;;;;;;;30.54;55.71;101136.31;5076452;27;69318;-37
2021/12/02 12:42:06;;;;;;;;;;;;;;;30.49;55.43;101125.28;5069963;27;67139;-38
2021/12/02 12:45:22;;;;;;;;;;;;;;;30.36;57.16;101123.44;5075843;27;70987;-37
2021/12/02 12:48:16;;;;;;;;;;;;;;;30.19;57.87;101136.53;5075962;27;65506;-36
2021/12/02 12:51:14;;;;;;;;;;;;;;;30.08;57.75;101131.75;5069671;27;70052;-36
2021/12/02 12:53:59;;;;;;;;;;;;;;;30.01;59.07;101134.47;5075978;27;65832;-37
2021/12/02 12:56:47;;;;;;;;;;;;;;;29.96;58.14;101136.13;5066882;27;70356;-37
2021/12/02 12:59:46;;;;;;;;;;;;;;;29.84;58.46;101136.75;5061521;27;65893;-36
2021/12/02 13:02:26;;;;;;;;;;;;;;;29.79;59.32;101144.66;5065373;27;68887;-37
2021/12/02 13:05:01;;;;;;;;;;;;;;;29.81;59.88;101141.72;5072379;27;66683;-36
2021/12/02 13:08:05;;;;;;;;;;;;;;;29.76;59.71;101139.66;5073306;27;69107;-37
2021/12/02 13:11:01;;;;;;;;;;;;;;;29.65;59.97;101145.69;5071648;27;65535;-37
2021/12/02 13:13:38;;;;;;;;;;;;;;;29.64;60.27;101148.59;5073542;27;69886;-37
2021/12/02 13:16:20;;;;;;;;;;;;;;;29.59;59.50;101160.81;5072628;27;66774;-37
2021/12/02 13:19:45;;;;;;;;;;;;;;;29.57;60.18;101156.66;5069363;27;70540;-37
2021/12/02 13:22:34;;;;;;;;;;;;;;;29.50;59.48;101155.81;5074557;27;66589;-37
2021/12/02 13:26:24;;;;;;;;;;;;;;;29.46;60.06;101166.19;5065645;27;69448;-35
2021/12/02 13:29:29;;;;;;;;;;;;;;;29.41;60.47;101163.25;5071876;27;66715;-37
2021/12/02 13:32:09;;;;;;;;;;;;;;;29.35;60.28;101170.31;5068237;27;69156;-38
2021/12/02 13:34:50;;;;;;;;;;;;;;;29.30;60.20;101178.19;5073585;27;66798;-38
2021/12/02 13:37:41;;;;;;;;;;;;;;;29.26;60.27;101186.94;5071699;27;70090;-37
2021/12/02 13:40:40;;;;;;;;;;;;;;;29.20;60.49;101187.72;5072077;27;65562;-39
2021/12/02 13:43:19;;;;;;;;;;;;;;;29.18;61.02;101187.94;5044647;28;70504;-37
2021/12/02 13:46:35;;;;;;;;;;;;;;;29.19;60.93;101184.19;5073523;27;66338;-37